BGA134C EDHI-EGNR
Flight info
| Callsign | BGA134C |
|---|---|
| Flight time | 1h 41m |
| Altitude | 30000 |
| Route | WSN4W WSN N125 PREXA L602 NALAX L46 LIBSO UL975 DESIG DCT WAL DCT KEGUN |
| Aircraft | A3ST/H-SDFGHIRWY/LB1 |
Departure
| Time | 2026-04-22 18:06 |
|---|---|
| Airport | Hamburg-Finkenwerder Airport (EDHI) |
Arrival
| Time | 2026-04-22 19:47 |
|---|---|
| Airport | Hawarden Airport (EGNR) |
| Time | Latitude | Longitude | Altitude | Speed | Heading |
|---|---|---|---|---|---|
| 2026-04-22 17:06 | 53.53621 | 9.82925 | 18 ft | 0 kts | 52° |
| 2026-04-22 17:49 | 53.53621 | 9.82924 | 19 ft | 0 kts | 52° |
| 2026-04-22 17:51 | 53.53619 | 9.82920 | 19 ft | 2 kts | 52° |
| 2026-04-22 17:51 | 53.53610 | 9.82901 | 19 ft | 2 kts | 52° |
| 2026-04-22 17:51 | 53.53601 | 9.82881 | 18 ft | 2 kts | 52° |
| 2026-04-22 17:52 | 53.53592 | 9.82861 | 18 ft | 2 kts | 52° |
| 2026-04-22 17:52 | 53.53582 | 9.82841 | 17 ft | 2 kts | 52° |
| 2026-04-22 17:52 | 53.53575 | 9.82820 | 17 ft | 2 kts | 76° |
| 2026-04-22 17:52 | 53.53574 | 9.82795 | 17 ft | 2 kts | 99° |
| 2026-04-22 17:53 | 53.53579 | 9.82771 | 17 ft | 2 kts | 123° |
| 2026-04-22 17:53 | 53.53586 | 9.82757 | 17 ft | 0 kts | 141° |
| 2026-04-22 17:53 | 53.53589 | 9.82753 | 17 ft | 0 kts | 142° |
| 2026-04-22 17:57 | 53.53588 | 9.82755 | 17 ft | 1 kts | 142° |
| 2026-04-22 17:57 | 53.53579 | 9.82767 | 17 ft | 3 kts | 142° |
| 2026-04-22 17:58 | 53.53554 | 9.82800 | 17 ft | 4 kts | 140° |
| 2026-04-22 17:58 | 53.53536 | 9.82826 | 17 ft | 2 kts | 140° |
| 2026-04-22 17:58 | 53.53527 | 9.82839 | 17 ft | 1 kts | 140° |
| 2026-04-22 17:58 | 53.53519 | 9.82849 | 18 ft | 2 kts | 140° |
| 2026-04-22 17:59 | 53.53500 | 9.82875 | 18 ft | 5 kts | 142° |
| 2026-04-22 17:59 | 53.53462 | 9.82933 | 19 ft | 9 kts | 138° |
| 2026-04-22 17:59 | 53.53396 | 9.83015 | 21 ft | 14 kts | 143° |
| 2026-04-22 17:59 | 53.53348 | 9.83148 | 21 ft | 14 kts | 75° |
| 2026-04-22 18:00 | 53.53385 | 9.83237 | 22 ft | 12 kts | 52° |
| 2026-04-22 18:00 | 53.53435 | 9.83335 | 24 ft | 8 kts | 51° |
| 2026-04-22 18:00 | 53.53492 | 9.83469 | 24 ft | 20 kts | 53° |
| 2026-04-22 18:00 | 53.53596 | 9.83688 | 28 ft | 20 kts | 53° |
| 2026-04-22 18:01 | 53.53633 | 9.83784 | 29 ft | 11 kts | 44° |
| 2026-04-22 18:01 | 53.53709 | 9.83935 | 29 ft | 13 kts | 46° |
| 2026-04-22 18:01 | 53.53799 | 9.84118 | 28 ft | 27 kts | 52° |
| 2026-04-22 18:01 | 53.53943 | 9.84419 | 27 ft | 36 kts | 50° |
| 2026-04-22 18:02 | 53.54093 | 9.84738 | 24 ft | 35 kts | 52° |
| 2026-04-22 18:02 | 53.54194 | 9.84940 | 23 ft | 11 kts | 21° |
| 2026-04-22 18:02 | 53.54261 | 9.84977 | 23 ft | 9 kts | 32° |
| 2026-04-22 18:02 | 53.54281 | 9.85045 | 22 ft | 5 kts | 101° |
| 2026-04-22 18:03 | 53.54270 | 9.85066 | 22 ft | 1 kts | 156° |
| 2026-04-22 18:03 | 53.54261 | 9.85067 | 22 ft | 1 kts | 185° |
| 2026-04-22 18:03 | 53.54254 | 9.85063 | 22 ft | 1 kts | 206° |
| 2026-04-22 18:03 | 53.54239 | 9.85047 | 23 ft | 4 kts | 217° |
| 2026-04-22 18:04 | 53.54216 | 9.85006 | 23 ft | 0 kts | 232° |
| 2026-04-22 18:05 | 53.54209 | 9.84990 | 23 ft | 8 kts | 233° |
| 2026-04-22 18:05 | 53.54038 | 9.84620 | 26 ft | 82 kts | 231° |
| 2026-04-22 18:05 | 53.53488 | 9.83471 | 25 ft | 167 kts | 233° |
| 2026-04-22 18:05 | 53.52671 | 9.81744 | 491 ft | 199 kts | 233° |
| 2026-04-22 18:06 | 53.51792 | 9.79952 | 1293 ft | 204 kts | 236° |
| 2026-04-22 18:06 | 53.50869 | 9.77934 | 1668 ft | 233 kts | 236° |
| 2026-04-22 18:06 | 53.49835 | 9.75652 | 2057 ft | 258 kts | 235° |
| 2026-04-22 18:06 | 53.48823 | 9.73124 | 2754 ft | 263 kts | 251° |
| 2026-04-22 18:07 | 53.48444 | 9.71223 | 3340 ft | 258 kts | 257° |
| 2026-04-22 18:07 | 53.47829 | 9.67274 | 4346 ft | 268 kts | 258° |
| 2026-04-22 18:07 | 53.47371 | 9.64375 | 5834 ft | 258 kts | 258° |
| 2026-04-22 18:07 | 53.46907 | 9.61461 | 6818 ft | 271 kts | 258° |
| 2026-04-22 18:08 | 53.46411 | 9.58353 | 7810 ft | 282 kts | 258° |
| 2026-04-22 18:08 | 53.45903 | 9.55179 | 8831 ft | 288 kts | 258° |
| 2026-04-22 18:08 | 53.45378 | 9.51919 | 9828 ft | 294 kts | 258° |
| 2026-04-22 18:08 | 53.44846 | 9.48632 | 10813 ft | 299 kts | 258° |
| 2026-04-22 18:09 | 53.44295 | 9.45233 | 11573 ft | 310 kts | 258° |
| 2026-04-22 18:09 | 53.43720 | 9.41682 | 12131 ft | 328 kts | 258° |
| 2026-04-22 18:09 | 53.43103 | 9.37877 | 12747 ft | 344 kts | 258° |
| 2026-04-22 18:09 | 53.42462 | 9.33957 | 13583 ft | 352 kts | 257° |
| 2026-04-22 18:10 | 53.41817 | 9.30035 | 14478 ft | 356 kts | 257° |
| 2026-04-22 18:10 | 53.41162 | 9.26029 | 15395 ft | 359 kts | 257° |
| 2026-04-22 18:10 | 53.40501 | 9.21994 | 16268 ft | 363 kts | 257° |
| 2026-04-22 18:10 | 53.39821 | 9.17888 | 17083 ft | 367 kts | 256° |
| 2026-04-22 18:11 | 53.39127 | 9.13768 | 17853 ft | 372 kts | 256° |
| 2026-04-22 18:11 | 53.38421 | 9.09572 | 18611 ft | 377 kts | 256° |
| 2026-04-22 18:11 | 53.37716 | 9.05351 | 19370 ft | 381 kts | 256° |
| 2026-04-22 18:11 | 53.37003 | 9.01060 | 20119 ft | 384 kts | 256° |
| 2026-04-22 18:12 | 53.36282 | 8.96715 | 20808 ft | 389 kts | 256° |
| 2026-04-22 18:12 | 53.35553 | 8.92345 | 21475 ft | 394 kts | 256° |
| 2026-04-22 18:12 | 53.35055 | 8.89400 | 21943 ft | 397 kts | 255° |
| 2026-04-22 18:12 | 53.33882 | 8.83523 | 22879 ft | 402 kts | 251° |
| 2026-04-22 18:13 | 53.32909 | 8.79126 | 23520 ft | 407 kts | 251° |
| 2026-04-22 18:13 | 53.31922 | 8.74725 | 24117 ft | 411 kts | 251° |
| 2026-04-22 18:13 | 53.30918 | 8.70228 | 24659 ft | 416 kts | 251° |
| 2026-04-22 18:13 | 53.29906 | 8.65669 | 25185 ft | 422 kts | 251° |
| 2026-04-22 18:14 | 53.28887 | 8.61048 | 25749 ft | 426 kts | 251° |
| 2026-04-22 18:14 | 53.27867 | 8.56388 | 26326 ft | 429 kts | 251° |
| 2026-04-22 18:14 | 53.26849 | 8.51728 | 26969 ft | 430 kts | 251° |
| 2026-04-22 18:14 | 53.25889 | 8.47020 | 27629 ft | 430 kts | 253° |
| 2026-04-22 18:15 | 53.24983 | 8.42250 | 28318 ft | 430 kts | 254° |
| 2026-04-22 18:15 | 53.24097 | 8.37492 | 29013 ft | 429 kts | 254° |
| 2026-04-22 18:15 | 53.23216 | 8.32759 | 29640 ft | 427 kts | 253° |
| 2026-04-22 18:15 | 53.22332 | 8.28054 | 30226 ft | 427 kts | 253° |
| 2026-04-22 18:16 | 53.21449 | 8.23389 | 30813 ft | 426 kts | 253° |
| 2026-04-22 18:16 | 53.20557 | 8.18704 | 31294 ft | 425 kts | 253° |
| 2026-04-22 18:16 | 53.19675 | 8.14045 | 31762 ft | 425 kts | 253° |
| 2026-04-22 18:16 | 53.18779 | 8.09349 | 32245 ft | 424 kts | 253° |
| 2026-04-22 18:17 | 53.17883 | 8.04650 | 32714 ft | 423 kts | 253° |
| 2026-04-22 18:17 | 53.17003 | 7.99993 | 33178 ft | 422 kts | 253° |
| 2026-04-22 18:17 | 53.16134 | 7.95377 | 33587 ft | 421 kts | 253° |
| 2026-04-22 18:17 | 53.15252 | 7.90697 | 33814 ft | 421 kts | 253° |
| 2026-04-22 18:18 | 53.14372 | 7.86060 | 34048 ft | 420 kts | 253° |
| 2026-04-22 18:18 | 53.13500 | 7.81479 | 34258 ft | 417 kts | 253° |
| 2026-04-22 18:18 | 53.12918 | 7.78427 | 34355 ft | 419 kts | 253° |
| 2026-04-22 18:19 | 53.11165 | 7.69249 | 34378 ft | 417 kts | 253° |
| 2026-04-22 18:19 | 53.09388 | 7.60098 | 34375 ft | 413 kts | 253° |
| 2026-04-22 18:20 | 53.07330 | 7.49516 | 34378 ft | 412 kts | 253° |
| 2026-04-22 18:20 | 53.05582 | 7.40506 | 34382 ft | 413 kts | 253° |
| 2026-04-22 18:21 | 53.03808 | 7.31397 | 34382 ft | 413 kts | 253° |
| 2026-04-22 18:21 | 53.02037 | 7.22397 | 34376 ft | 410 kts | 252° |
| 2026-04-22 18:22 | 53.00217 | 7.13439 | 34389 ft | 409 kts | 252° |
| 2026-04-22 18:22 | 52.98404 | 7.04535 | 34386 ft | 410 kts | 252° |
| 2026-04-22 18:23 | 52.96581 | 6.95595 | 34384 ft | 409 kts | 253° |
| 2026-04-22 18:23 | 52.94763 | 6.86693 | 34383 ft | 409 kts | 253° |
| 2026-04-22 18:24 | 52.92016 | 6.73348 | 34384 ft | 408 kts | 253° |
| 2026-04-22 18:25 | 52.89259 | 6.60034 | 34387 ft | 409 kts | 253° |
| 2026-04-22 18:25 | 52.87411 | 6.51169 | 34376 ft | 408 kts | 253° |
| 2026-04-22 18:26 | 52.84634 | 6.37908 | 34378 ft | 408 kts | 253° |
| 2026-04-22 18:26 | 52.82733 | 6.29033 | 34370 ft | 408 kts | 252° |
| 2026-04-22 18:27 | 52.80838 | 6.20193 | 34374 ft | 408 kts | 252° |
| 2026-04-22 18:27 | 52.79275 | 6.12831 | 34372 ft | 407 kts | 252° |
| 2026-04-22 18:28 | 52.77396 | 6.04019 | 34391 ft | 407 kts | 252° |
| 2026-04-22 18:28 | 52.75507 | 5.95248 | 34393 ft | 407 kts | 253° |
| 2026-04-22 18:29 | 52.73305 | 5.84986 | 34407 ft | 407 kts | 253° |
| 2026-04-22 18:29 | 52.72665 | 5.80436 | 34399 ft | 402 kts | 267° |
| 2026-04-22 18:29 | 52.72542 | 5.75863 | 34440 ft | 400 kts | 273° |
| 2026-04-22 18:30 | 52.72495 | 5.62158 | 34402 ft | 400 kts | 272° |
| 2026-04-22 18:31 | 52.72355 | 5.53041 | 34389 ft | 399 kts | 272° |
| 2026-04-22 18:31 | 52.72210 | 5.43870 | 34388 ft | 398 kts | 272° |
| 2026-04-22 18:32 | 52.72081 | 5.36290 | 34397 ft | 398 kts | 272° |
| 2026-04-22 18:32 | 52.71897 | 5.25581 | 34383 ft | 398 kts | 271° |
| 2026-04-22 18:33 | 52.71732 | 5.16495 | 34389 ft | 397 kts | 271° |
| 2026-04-22 18:33 | 52.71560 | 5.07471 | 34383 ft | 397 kts | 271° |
| 2026-04-22 18:34 | 52.71381 | 4.98334 | 34386 ft | 397 kts | 272° |
| 2026-04-22 18:34 | 52.71198 | 4.89308 | 34390 ft | 397 kts | 271° |
| 2026-04-22 18:35 | 52.71003 | 4.80282 | 34384 ft | 396 kts | 272° |
| 2026-04-22 18:35 | 52.70805 | 4.71201 | 34391 ft | 396 kts | 272° |
| 2026-04-22 18:36 | 52.70598 | 4.62175 | 34383 ft | 394 kts | 272° |
| 2026-04-22 18:36 | 52.70390 | 4.53217 | 34387 ft | 395 kts | 272° |
| 2026-04-22 18:37 | 52.71024 | 4.44513 | 34385 ft | 379 kts | 302° |
| 2026-04-22 18:37 | 52.73548 | 4.38635 | 34400 ft | 376 kts | 311° |
| 2026-04-22 18:38 | 52.76846 | 4.30198 | 34382 ft | 378 kts | 303° |
| 2026-04-22 18:38 | 52.79405 | 4.22626 | 34380 ft | 378 kts | 303° |
| 2026-04-22 18:39 | 52.83237 | 4.11298 | 34384 ft | 378 kts | 303° |
| 2026-04-22 18:39 | 52.85796 | 4.03723 | 34386 ft | 377 kts | 303° |
| 2026-04-22 18:40 | 52.88337 | 3.96168 | 34391 ft | 377 kts | 303° |
| 2026-04-22 18:40 | 52.90870 | 3.88629 | 34388 ft | 377 kts | 303° |
| 2026-04-22 18:41 | 52.93399 | 3.81064 | 34388 ft | 377 kts | 303° |
| 2026-04-22 18:41 | 52.95929 | 3.73481 | 34394 ft | 377 kts | 303° |
| 2026-04-22 18:42 | 52.98446 | 3.65848 | 34386 ft | 377 kts | 302° |
| 2026-04-22 18:42 | 53.00959 | 3.58203 | 34403 ft | 378 kts | 302° |
| 2026-04-22 18:43 | 53.03464 | 3.50602 | 34394 ft | 378 kts | 302° |
| 2026-04-22 18:43 | 53.05971 | 3.42977 | 34400 ft | 377 kts | 302° |
| 2026-04-22 18:44 | 53.08476 | 3.35346 | 34402 ft | 378 kts | 302° |
| 2026-04-22 18:44 | 53.10583 | 3.27266 | 34418 ft | 384 kts | 288° |
| 2026-04-22 18:45 | 53.11706 | 3.18576 | 34429 ft | 386 kts | 285° |
| 2026-04-22 18:45 | 53.12826 | 3.09885 | 34416 ft | 384 kts | 285° |
| 2026-04-22 18:46 | 53.13977 | 3.01205 | 34422 ft | 385 kts | 286° |
| 2026-04-22 18:46 | 53.15119 | 2.92559 | 34410 ft | 384 kts | 285° |
| 2026-04-22 18:47 | 53.16257 | 2.83828 | 34408 ft | 385 kts | 285° |
| 2026-04-22 18:47 | 53.17380 | 2.75198 | 34409 ft | 385 kts | 285° |
| 2026-04-22 18:48 | 53.18505 | 2.66496 | 34406 ft | 384 kts | 285° |
| 2026-04-22 18:48 | 53.19625 | 2.57777 | 34400 ft | 384 kts | 285° |
| 2026-04-22 18:49 | 53.20717 | 2.49132 | 34405 ft | 384 kts | 285° |
| 2026-04-22 18:49 | 53.21789 | 2.40417 | 34407 ft | 384 kts | 285° |
| 2026-04-22 18:50 | 53.22886 | 2.31688 | 34414 ft | 384 kts | 284° |
| 2026-04-22 18:50 | 53.23977 | 2.22968 | 34411 ft | 384 kts | 284° |
| 2026-04-22 18:51 | 53.25062 | 2.14273 | 34413 ft | 384 kts | 284° |
| 2026-04-22 18:51 | 53.26134 | 2.05587 | 34416 ft | 384 kts | 284° |
| 2026-04-22 18:52 | 53.27213 | 1.96826 | 34424 ft | 385 kts | 284° |
| 2026-04-22 18:52 | 53.28273 | 1.88100 | 34419 ft | 383 kts | 284° |
| 2026-04-22 18:53 | 53.29328 | 1.79387 | 34422 ft | 382 kts | 284° |
| 2026-04-22 18:53 | 53.30366 | 1.70780 | 34419 ft | 380 kts | 284° |
| 2026-04-22 18:54 | 53.31410 | 1.62081 | 34427 ft | 380 kts | 284° |
| 2026-04-22 18:54 | 53.32437 | 1.53439 | 34422 ft | 380 kts | 284° |
| 2026-04-22 18:55 | 53.33574 | 1.44880 | 34415 ft | 377 kts | 287° |
| 2026-04-22 18:55 | 53.34805 | 1.36431 | 34429 ft | 377 kts | 287° |
| 2026-04-22 18:56 | 53.36044 | 1.27923 | 34432 ft | 376 kts | 286° |
| 2026-04-22 18:56 | 53.37261 | 1.19484 | 34425 ft | 374 kts | 286° |
| 2026-04-22 18:57 | 53.38475 | 1.11042 | 34422 ft | 374 kts | 287° |
| 2026-04-22 18:57 | 53.39682 | 1.02607 | 34427 ft | 372 kts | 287° |
| 2026-04-22 18:58 | 53.40874 | 0.94210 | 34430 ft | 372 kts | 287° |
| 2026-04-22 18:58 | 53.42062 | 0.85815 | 34433 ft | 370 kts | 286° |
| 2026-04-22 18:59 | 53.43242 | 0.77435 | 34441 ft | 372 kts | 286° |
| 2026-04-22 18:59 | 53.44416 | 0.69035 | 34438 ft | 371 kts | 286° |
| 2026-04-22 19:00 | 53.45581 | 0.60633 | 34431 ft | 370 kts | 286° |
| 2026-04-22 19:00 | 53.46734 | 0.52294 | 34423 ft | 369 kts | 286° |
| 2026-04-22 19:01 | 53.47889 | 0.43906 | 34429 ft | 369 kts | 286° |
| 2026-04-22 19:01 | 53.48989 | 0.35538 | 34431 ft | 369 kts | 285° |
| 2026-04-22 19:02 | 53.50098 | 0.27182 | 34431 ft | 368 kts | 285° |
| 2026-04-22 19:02 | 53.51226 | 0.18834 | 34440 ft | 368 kts | 285° |
| 2026-04-22 19:03 | 53.52332 | 0.10494 | 34435 ft | 366 kts | 283° |
| 2026-04-22 19:03 | 53.53060 | 0.01991 | 34441 ft | 368 kts | 280° |
| 2026-04-22 19:04 | 53.53682 | -0.06476 | 34437 ft | 367 kts | 280° |
| 2026-04-22 19:04 | 53.54314 | -0.14951 | 34432 ft | 367 kts | 280° |
| 2026-04-22 19:05 | 53.54942 | -0.23446 | 34430 ft | 367 kts | 280° |
| 2026-04-22 19:05 | 53.55561 | -0.31915 | 34433 ft | 367 kts | 279° |
| 2026-04-22 19:06 | 53.56182 | -0.40470 | 34109 ft | 373 kts | 279° |
| 2026-04-22 19:06 | 53.56489 | -0.44741 | 33588 ft | 372 kts | 280° |
| 2026-04-22 19:07 | 53.57099 | -0.53343 | 32403 ft | 372 kts | 280° |
| 2026-04-22 19:07 | 53.57405 | -0.57668 | 31743 ft | 373 kts | 280° |
| 2026-04-22 19:07 | 53.57705 | -0.61962 | 31092 ft | 373 kts | 280° |
| 2026-04-22 19:07 | 53.57997 | -0.66288 | 30410 ft | 374 kts | 279° |
| 2026-04-22 19:08 | 53.58284 | -0.70646 | 29730 ft | 374 kts | 279° |
| 2026-04-22 19:08 | 53.58577 | -0.74979 | 29001 ft | 375 kts | 279° |
| 2026-04-22 19:08 | 53.58875 | -0.79309 | 28272 ft | 377 kts | 279° |
| 2026-04-22 19:08 | 53.59177 | -0.83702 | 27537 ft | 378 kts | 279° |
| 2026-04-22 19:09 | 53.59476 | -0.88084 | 26800 ft | 378 kts | 279° |
| 2026-04-22 19:09 | 53.59773 | -0.92459 | 26081 ft | 381 kts | 278° |
| 2026-04-22 19:09 | 53.59974 | -0.95411 | 25595 ft | 384 kts | 278° |
| 2026-04-22 19:09 | 53.60377 | -1.01411 | 24626 ft | 386 kts | 278° |
| 2026-04-22 19:10 | 53.60671 | -1.05867 | 23914 ft | 385 kts | 278° |
| 2026-04-22 19:10 | 53.60654 | -1.10341 | 23205 ft | 386 kts | 266° |
| 2026-04-22 19:10 | 53.60285 | -1.14827 | 22522 ft | 385 kts | 262° |
| 2026-04-22 19:10 | 53.59832 | -1.19216 | 21839 ft | 384 kts | 261° |
| 2026-04-22 19:11 | 53.59363 | -1.23658 | 21138 ft | 383 kts | 260° |
| 2026-04-22 19:11 | 53.58876 | -1.28004 | 20443 ft | 381 kts | 260° |
| 2026-04-22 19:11 | 53.58281 | -1.32358 | 19740 ft | 379 kts | 250° |
| 2026-04-22 19:11 | 53.57201 | -1.36309 | 19089 ft | 376 kts | 242° |
| 2026-04-22 19:12 | 53.55975 | -1.40236 | 18413 ft | 375 kts | 241° |
| 2026-04-22 19:12 | 53.54729 | -1.44024 | 17708 ft | 371 kts | 234° |
| 2026-04-22 19:12 | 53.53239 | -1.47467 | 17044 ft | 369 kts | 238° |
| 2026-04-22 19:12 | 53.52348 | -1.51520 | 16363 ft | 369 kts | 255° |
| 2026-04-22 19:13 | 53.51504 | -1.55483 | 15733 ft | 362 kts | 242° |
| 2026-04-22 19:13 | 53.50300 | -1.59129 | 15242 ft | 354 kts | 239° |
| 2026-04-22 19:13 | 53.49130 | -1.62732 | 14782 ft | 347 kts | 240° |
| 2026-04-22 19:13 | 53.48053 | -1.66297 | 14408 ft | 339 kts | 241° |
| 2026-04-22 19:14 | 53.47035 | -1.69826 | 14030 ft | 331 kts | 241° |
| 2026-04-22 19:14 | 53.46066 | -1.73259 | 13654 ft | 325 kts | 242° |
| 2026-04-22 19:14 | 53.45106 | -1.76674 | 13272 ft | 318 kts | 242° |
| 2026-04-22 19:14 | 53.44176 | -1.79972 | 12883 ft | 312 kts | 242° |
| 2026-04-22 19:15 | 53.43567 | -1.82138 | 12630 ft | 309 kts | 242° |
| 2026-04-22 19:15 | 53.42367 | -1.86405 | 12124 ft | 302 kts | 242° |
| 2026-04-22 19:15 | 53.41474 | -1.89570 | 11745 ft | 298 kts | 242° |
| 2026-04-22 19:15 | 53.40586 | -1.92722 | 11356 ft | 296 kts | 241° |
| 2026-04-22 19:16 | 53.39708 | -1.95829 | 10971 ft | 295 kts | 241° |
| 2026-04-22 19:16 | 53.38834 | -1.98915 | 10575 ft | 293 kts | 241° |
| 2026-04-22 19:16 | 53.37968 | -2.01976 | 10174 ft | 289 kts | 241° |
| 2026-04-22 19:16 | 53.37112 | -2.04997 | 9784 ft | 286 kts | 241° |
| 2026-04-22 19:17 | 53.36262 | -2.08005 | 9418 ft | 284 kts | 241° |
| 2026-04-22 19:17 | 53.35425 | -2.10954 | 9001 ft | 282 kts | 241° |
| 2026-04-22 19:17 | 53.34586 | -2.13901 | 8609 ft | 279 kts | 241° |
| 2026-04-22 19:17 | 53.33751 | -2.16837 | 8206 ft | 277 kts | 240° |
| 2026-04-22 19:18 | 53.32927 | -2.19726 | 7830 ft | 274 kts | 240° |
| 2026-04-22 19:18 | 53.32110 | -2.22585 | 7453 ft | 272 kts | 240° |
| 2026-04-22 19:18 | 53.31309 | -2.25393 | 7331 ft | 260 kts | 240° |
| 2026-04-22 19:18 | 53.30545 | -2.28067 | 7332 ft | 249 kts | 240° |
| 2026-04-22 19:19 | 53.29804 | -2.30646 | 7339 ft | 244 kts | 239° |
| 2026-04-22 19:19 | 53.29072 | -2.33188 | 7351 ft | 242 kts | 239° |
| 2026-04-22 19:19 | 53.28346 | -2.35701 | 7358 ft | 241 kts | 239° |
| 2026-04-22 19:19 | 53.27611 | -2.38250 | 7361 ft | 241 kts | 239° |
| 2026-04-22 19:20 | 53.26886 | -2.40772 | 7359 ft | 241 kts | 239° |
| 2026-04-22 19:20 | 53.26159 | -2.43290 | 7365 ft | 244 kts | 240° |
| 2026-04-22 19:20 | 53.25392 | -2.45930 | 7392 ft | 262 kts | 240° |
| 2026-04-22 19:20 | 53.24584 | -2.48728 | 7380 ft | 268 kts | 240° |
| 2026-04-22 19:21 | 53.23772 | -2.51542 | 7367 ft | 271 kts | 240° |
| 2026-04-22 19:21 | 53.22956 | -2.54367 | 7360 ft | 272 kts | 240° |
| 2026-04-22 19:21 | 53.22137 | -2.57200 | 7355 ft | 273 kts | 240° |
| 2026-04-22 19:21 | 53.21306 | -2.60064 | 7352 ft | 273 kts | 240° |
| 2026-04-22 19:22 | 53.20470 | -2.62938 | 7352 ft | 274 kts | 240° |
| 2026-04-22 19:22 | 53.19638 | -2.65801 | 7352 ft | 273 kts | 239° |
| 2026-04-22 19:22 | 53.18809 | -2.68651 | 7344 ft | 273 kts | 239° |
| 2026-04-22 19:22 | 53.17979 | -2.71498 | 7340 ft | 273 kts | 239° |
| 2026-04-22 19:23 | 53.17144 | -2.74350 | 7342 ft | 273 kts | 239° |
| 2026-04-22 19:23 | 53.16317 | -2.77181 | 7348 ft | 273 kts | 239° |
| 2026-04-22 19:23 | 53.15482 | -2.80038 | 7347 ft | 273 kts | 239° |
| 2026-04-22 19:23 | 53.14651 | -2.82874 | 7345 ft | 273 kts | 239° |
| 2026-04-22 19:24 | 53.13818 | -2.85715 | 7254 ft | 275 kts | 239° |
| 2026-04-22 19:24 | 53.12850 | -2.88425 | 6986 ft | 267 kts | 224° |
| 2026-04-22 19:24 | 53.11570 | -2.90618 | 6744 ft | 262 kts | 214° |
| 2026-04-22 19:24 | 53.10123 | -2.92437 | 6498 ft | 258 kts | 210° |
| 2026-04-22 19:25 | 53.08703 | -2.94148 | 6237 ft | 251 kts | 210° |
| 2026-04-22 19:25 | 53.07301 | -2.95844 | 5977 ft | 248 kts | 210° |
| 2026-04-22 19:25 | 53.05906 | -2.97531 | 5720 ft | 247 kts | 210° |
| 2026-04-22 19:25 | 53.04530 | -2.99203 | 5469 ft | 247 kts | 210° |
| 2026-04-22 19:26 | 53.03133 | -3.00904 | 5164 ft | 248 kts | 210° |
| 2026-04-22 19:26 | 53.01765 | -3.02573 | 4794 ft | 248 kts | 210° |
| 2026-04-22 19:26 | 53.00368 | -3.04284 | 4415 ft | 248 kts | 210° |
| 2026-04-22 19:26 | 52.99088 | -3.06199 | 4036 ft | 252 kts | 226° |
| 2026-04-22 19:27 | 52.98269 | -3.08805 | 3697 ft | 254 kts | 241° |
| 2026-04-22 19:27 | 52.97607 | -3.11463 | 3457 ft | 252 kts | 253° |
| 2026-04-22 19:27 | 52.97665 | -3.14279 | 3428 ft | 243 kts | 289° |
| 2026-04-22 19:27 | 52.98575 | -3.16543 | 3431 ft | 229 kts | 325° |
| 2026-04-22 19:28 | 52.99937 | -3.17526 | 3469 ft | 208 kts | 358° |
| 2026-04-22 19:28 | 53.01377 | -3.17836 | 3465 ft | 206 kts | 360° |
| 2026-04-22 19:28 | 53.02782 | -3.18094 | 3448 ft | 202 kts | 2° |
| 2026-04-22 19:28 | 53.04077 | -3.17653 | 3429 ft | 180 kts | 47° |
| 2026-04-22 19:29 | 53.04741 | -3.16038 | 3514 ft | 168 kts | 72° |
| 2026-04-22 19:29 | 53.05319 | -3.14325 | 3476 ft | 178 kts | 57° |
| 2026-04-22 19:29 | 53.06260 | -3.12915 | 3262 ft | 185 kts | 47° |
| 2026-04-22 19:29 | 53.07262 | -3.11581 | 2976 ft | 184 kts | 45° |
| 2026-04-22 19:30 | 53.07932 | -3.10715 | 2788 ft | 182 kts | 45° |
| 2026-04-22 19:30 | 53.09247 | -3.09031 | 2449 ft | 171 kts | 46° |
| 2026-04-22 19:30 | 53.10165 | -3.07855 | 2143 ft | 160 kts | 46° |
| 2026-04-22 19:30 | 53.10997 | -3.06790 | 1866 ft | 142 kts | 47° |
| 2026-04-22 19:31 | 53.11737 | -3.05846 | 1669 ft | 126 kts | 47° |
| 2026-04-22 19:31 | 53.12421 | -3.05007 | 1385 ft | 123 kts | 44° |
| 2026-04-22 19:31 | 53.13133 | -3.04260 | 1103 ft | 121 kts | 44° |
| 2026-04-22 19:31 | 53.13811 | -3.03411 | 1014 ft | 118 kts | 44° |
| 2026-04-22 19:32 | 53.14459 | -3.02597 | 839 ft | 119 kts | 48° |
| 2026-04-22 19:32 | 53.15093 | -3.01677 | 727 ft | 119 kts | 49° |
| 2026-04-22 19:32 | 53.15729 | -3.00744 | 559 ft | 124 kts | 48° |
| 2026-04-22 19:32 | 53.16389 | -2.99813 | 351 ft | 127 kts | 46° |
| 2026-04-22 19:33 | 53.17056 | -2.98824 | 124 ft | 129 kts | 48° |
| 2026-04-22 19:33 | 53.17740 | -2.97888 | 58 ft | 126 kts | 46° |
| 2026-04-22 19:33 | 53.18413 | -2.96840 | 622 ft | 138 kts | 52° |
| 2026-04-22 19:33 | 53.19058 | -2.95706 | 1579 ft | 148 kts | 54° |
| 2026-04-22 19:34 | 53.19779 | -2.94462 | 2651 ft | 160 kts | 54° |
| 2026-04-22 19:34 | 53.20599 | -2.93132 | 3644 ft | 183 kts | 43° |
| 2026-04-22 19:34 | 53.21902 | -2.92543 | 4590 ft | 216 kts | 4° |
| 2026-04-22 19:34 | 53.23416 | -2.93360 | 5089 ft | 243 kts | 328° |
| 2026-04-22 19:35 | 53.24548 | -2.95498 | 5394 ft | 252 kts | 296° |
| 2026-04-22 19:35 | 53.25248 | -2.98190 | 5389 ft | 255 kts | 290° |
| 2026-04-22 19:35 | 53.25675 | -3.00022 | 5368 ft | 255 kts | 289° |
| 2026-04-22 19:35 | 53.26520 | -3.03707 | 5359 ft | 255 kts | 289° |
| 2026-04-22 19:36 | 53.27155 | -3.06497 | 5360 ft | 257 kts | 287° |
| 2026-04-22 19:36 | 53.27326 | -3.09436 | 5361 ft | 252 kts | 255° |
| 2026-04-22 19:36 | 53.26615 | -3.12012 | 5377 ft | 241 kts | 225° |
| 2026-04-22 19:36 | 53.25485 | -3.14036 | 5372 ft | 240 kts | 220° |
| 2026-04-22 19:37 | 53.24308 | -3.16032 | 5356 ft | 240 kts | 219° |
| 2026-04-22 19:37 | 53.23135 | -3.18020 | 5350 ft | 239 kts | 219° |
| 2026-04-22 19:37 | 53.21973 | -3.19987 | 5346 ft | 240 kts | 219° |
| 2026-04-22 19:37 | 53.20807 | -3.21966 | 5345 ft | 239 kts | 219° |
| 2026-04-22 19:38 | 53.19627 | -3.23970 | 5342 ft | 239 kts | 219° |
| 2026-04-22 19:38 | 53.18469 | -3.25931 | 5339 ft | 239 kts | 219° |
| 2026-04-22 19:38 | 53.17294 | -3.27927 | 5318 ft | 240 kts | 219° |
| 2026-04-22 19:38 | 53.16133 | -3.29902 | 5126 ft | 240 kts | 219° |
| 2026-04-22 19:39 | 53.14972 | -3.31883 | 5006 ft | 238 kts | 219° |
| 2026-04-22 19:39 | 53.13807 | -3.33869 | 4986 ft | 238 kts | 219° |
| 2026-04-22 19:39 | 53.12583 | -3.35680 | 4964 ft | 231 kts | 202° |
| 2026-04-22 19:39 | 53.11080 | -3.36367 | 4981 ft | 221 kts | 180° |
| 2026-04-22 19:40 | 53.09618 | -3.35976 | 4966 ft | 211 kts | 153° |
| 2026-04-22 19:40 | 53.08293 | -3.34895 | 4961 ft | 211 kts | 150° |
| 2026-04-22 19:40 | 53.06981 | -3.33773 | 4730 ft | 216 kts | 149° |
| 2026-04-22 19:40 | 53.05650 | -3.32641 | 4326 ft | 218 kts | 149° |
| 2026-04-22 19:41 | 53.04300 | -3.31510 | 3934 ft | 219 kts | 149° |
| 2026-04-22 19:41 | 53.02975 | -3.30283 | 3531 ft | 216 kts | 136° |
| 2026-04-22 19:41 | 53.02173 | -3.28263 | 3131 ft | 212 kts | 104° |
| 2026-04-22 19:41 | 53.02178 | -3.25854 | 2940 ft | 204 kts | 85° |
| 2026-04-22 19:42 | 53.02388 | -3.23612 | 2888 ft | 191 kts | 83° |
| 2026-04-22 19:42 | 53.02630 | -3.21454 | 2889 ft | 188 kts | 83° |
| 2026-04-22 19:42 | 53.02871 | -3.19386 | 2877 ft | 176 kts | 83° |
| 2026-04-22 19:42 | 53.03218 | -3.17532 | 2892 ft | 170 kts | 60° |
| 2026-04-22 19:43 | 53.04921 | -3.14735 | 2980 ft | 175 kts | 49° |
| 2026-04-22 19:43 | 53.05857 | -3.13434 | 2974 ft | 176 kts | 47° |
| 2026-04-22 19:43 | 53.06827 | -3.12148 | 2975 ft | 176 kts | 46° |
| 2026-04-22 19:44 | 53.07786 | -3.10900 | 2872 ft | 181 kts | 46° |
| 2026-04-22 19:44 | 53.08789 | -3.09612 | 2605 ft | 173 kts | 45° |
| 2026-04-22 19:44 | 53.09700 | -3.08458 | 2301 ft | 160 kts | 46° |
| 2026-04-22 19:44 | 53.10534 | -3.07392 | 2038 ft | 141 kts | 46° |
| 2026-04-22 19:45 | 53.11269 | -3.06450 | 1745 ft | 125 kts | 49° |
| 2026-04-22 19:45 | 53.11925 | -3.05643 | 1556 ft | 115 kts | 44° |
| 2026-04-22 19:45 | 53.12620 | -3.04951 | 1392 ft | 117 kts | 39° |
| 2026-04-22 19:45 | 53.13313 | -3.04222 | 1194 ft | 118 kts | 46° |
| 2026-04-22 19:46 | 53.13959 | -3.03370 | 1085 ft | 118 kts | 49° |
| 2026-04-22 19:46 | 53.14576 | -3.02456 | 929 ft | 119 kts | 50° |
| 2026-04-22 19:46 | 53.15201 | -3.01511 | 739 ft | 123 kts | 49° |
| 2026-04-22 19:46 | 53.15861 | -3.00586 | 545 ft | 127 kts | 46° |
| 2026-04-22 19:47 | 53.16528 | -2.99610 | 322 ft | 126 kts | 47° |
| 2026-04-22 19:47 | 53.17188 | -2.98661 | 121 ft | 126 kts | 46° |
| 2026-04-22 19:47 | 53.17635 | -2.98026 | 39 ft | 120 kts | 43° |
| 2026-04-22 19:47 | 53.18267 | -2.97103 | 31 ft | 38 kts | 37° |
| 2026-04-22 19:48 | 53.18391 | -2.96921 | 34 ft | 18 kts | 38° |
| 2026-04-22 19:48 | 53.18426 | -2.96837 | 34 ft | 7 kts | 62° |